KIN weather

Norman Manley International Airport
Kingston, Kingston, Jamaica

Public forecast

Using degrees Celsius for public forecast. Weather courtesy of forecast.io.

Current aviation weather report (METAR) for Norman Manley International Airport

Retrieved 2020/01/25 16:00 UTC (48 minutes ago):

MKJP 251600Z 27006KT 9999 FEW024 30/20 Q1016

Aviation forecast (TAF) for Norman Manley International Airport

Retrieved 2020/01/25 12:15 UTC (5 hours ago):

TAF TAF MKJP 251115Z 2512/2612 35007KT 9999 FEW022 BECMG 2514/2516 15010KT SCT022 BECMG 2602/2604 35008KT FEW022